sensor_id;sensor_type;location;lat;lon;timestamp;P1;durP1;ratioP1;P2;durP2;ratioP2
26530;SDS011;14201;43.188;24.160;2022-12-07T00:01:39;60.40;;;24.55;;
26530;SDS011;14201;43.188;24.160;2022-12-07T00:04:06;59.00;;;23.42;;
26530;SDS011;14201;43.188;24.160;2022-12-07T00:06:34;54.97;;;22.90;;
26530;SDS011;14201;43.188;24.160;2022-12-07T00:09:00;63.95;;;24.05;;
26530;SDS011;14201;43.188;24.160;2022-12-07T00:11:26;64.50;;;23.67;;
26530;SDS011;14201;43.188;24.160;2022-12-07T00:13:53;68.93;;;24.65;;
26530;SDS011;14201;43.188;24.160;2022-12-07T00:16:22;69.80;;;25.02;;
26530;SDS011;14201;43.188;24.160;2022-12-07T00:18:49;57.25;;;22.15;;
26530;SDS011;14201;43.188;24.160;2022-12-07T00:21:16;64.65;;;23.88;;
26530;SDS011;14201;43.188;24.160;2022-12-07T00:23:44;58.45;;;22.85;;
26530;SDS011;14201;43.188;24.160;2022-12-07T00:26:11;69.50;;;23.13;;
26530;SDS011;14201;43.188;24.160;2022-12-07T00:28:44;75.95;;;23.33;;
26530;SDS011;14201;43.188;24.160;2022-12-07T00:31:12;79.55;;;22.88;;
26530;SDS011;14201;43.188;24.160;2022-12-07T00:33:38;85.50;;;22.83;;
26530;SDS011;14201;43.188;24.160;2022-12-07T00:36:05;90.95;;;23.27;;
26530;SDS011;14201;43.188;24.160;2022-12-07T00:38:34;101.18;;;23.13;;
26530;SDS011;14201;43.188;24.160;2022-12-07T00:41:02;106.43;;;22.30;;
26530;SDS011;14201;43.188;24.160;2022-12-07T00:43:29;108.47;;;23.42;;
26530;SDS011;14201;43.188;24.160;2022-12-07T00:45:56;107.95;;;22.33;;
26530;SDS011;14201;43.188;24.160;2022-12-07T00:48:22;96.80;;;23.75;;
26530;SDS011;14201;43.188;24.160;2022-12-07T00:50:48;89.22;;;22.38;;
26530;SDS011;14201;43.188;24.160;2022-12-07T00:53:14;54.80;;;21.52;;
26530;SDS011;14201;43.188;24.160;2022-12-07T00:55:40;61.85;;;21.95;;
26530;SDS011;14201;43.188;24.160;2022-12-07T00:58:07;51.25;;;21.05;;
26530;SDS011;14201;43.188;24.160;2022-12-07T01:00:33;61.75;;;22.50;;
26530;SDS011;14201;43.188;24.160;2022-12-07T01:03:02;68.22;;;22.38;;
26530;SDS011;14201;43.188;24.160;2022-12-07T01:05:28;59.83;;;20.95;;
26530;SDS011;14201;43.188;24.160;2022-12-07T01:07:53;51.17;;;20.35;;
26530;SDS011;14201;43.188;24.160;2022-12-07T01:10:19;51.83;;;20.92;;
26530;SDS011;14201;43.188;24.160;2022-12-07T01:12:45;55.40;;;20.75;;
26530;SDS011;14201;43.188;24.160;2022-12-07T01:15:10;46.65;;;20.55;;
26530;SDS011;14201;43.188;24.160;2022-12-07T01:17:36;49.97;;;22.15;;
26530;SDS011;14201;43.188;24.160;2022-12-07T01:20:02;52.17;;;21.95;;
26530;SDS011;14201;43.188;24.160;2022-12-07T01:22:28;47.13;;;19.70;;
26530;SDS011;14201;43.188;24.160;2022-12-07T01:24:54;44.70;;;18.88;;
26530;SDS011;14201;43.188;24.160;2022-12-07T01:27:20;50.30;;;19.52;;
26530;SDS011;14201;43.188;24.160;2022-12-07T01:29:45;46.42;;;19.48;;
26530;SDS011;14201;43.188;24.160;2022-12-07T01:32:11;51.85;;;21.48;;
26530;SDS011;14201;43.188;24.160;2022-12-07T01:34:37;50.03;;;19.45;;
26530;SDS011;14201;43.188;24.160;2022-12-07T01:37:02;53.58;;;20.42;;
26530;SDS011;14201;43.188;24.160;2022-12-07T01:39:28;50.85;;;20.38;;
26530;SDS011;14201;43.188;24.160;2022-12-07T01:41:53;49.78;;;20.73;;
26530;SDS011;14201;43.188;24.160;2022-12-07T01:44:23;53.13;;;19.73;;
26530;SDS011;14201;43.188;24.160;2022-12-07T01:46:51;47.67;;;19.38;;
26530;SDS011;14201;43.188;24.160;2022-12-07T01:49:26;51.60;;;20.05;;
26530;SDS011;14201;43.188;24.160;2022-12-07T01:52:13;42.33;;;18.33;;
26530;SDS011;14201;43.188;24.160;2022-12-07T01:54:46;44.10;;;19.38;;
26530;SDS011;14201;43.188;24.160;2022-12-07T01:57:15;50.55;;;20.60;;
26530;SDS011;14201;43.188;24.160;2022-12-07T01:59:42;45.47;;;18.85;;
26530;SDS011;14201;43.188;24.160;2022-12-07T02:02:13;42.10;;;18.80;;
26530;SDS011;14201;43.188;24.160;2022-12-07T02:04:44;42.03;;;18.77;;
26530;SDS011;14201;43.188;24.160;2022-12-07T02:07:11;46.90;;;21.15;;
26530;SDS011;14201;43.188;24.160;2022-12-07T02:09:37;42.38;;;18.95;;
26530;SDS011;14201;43.188;24.160;2022-12-07T02:12:03;43.45;;;19.35;;
26530;SDS011;14201;43.188;24.160;2022-12-07T02:14:29;38.65;;;18.27;;
26530;SDS011;14201;43.188;24.160;2022-12-07T02:17:15;47.20;;;21.02;;
26530;SDS011;14201;43.188;24.160;2022-12-07T02:30:00;44.05;;;21.02;;
26530;SDS011;14201;43.188;24.160;2022-12-07T02:37:59;31.20;;;16.23;;
26530;SDS011;14201;43.188;24.160;2022-12-07T02:40:46;31.52;;;17.63;;
26530;SDS011;14201;43.188;24.160;2022-12-07T02:43:27;32.92;;;17.45;;
26530;SDS011;14201;43.188;24.160;2022-12-07T02:45:54;30.98;;;16.70;;
26530;SDS011;14201;43.188;24.160;2022-12-07T02:48:23;35.45;;;17.85;;
26530;SDS011;14201;43.188;24.160;2022-12-07T02:50:52;33.30;;;17.80;;
26530;SDS011;14201;43.188;24.160;2022-12-07T02:53:28;30.95;;;17.45;;
26530;SDS011;14201;43.188;24.160;2022-12-07T02:56:18;34.30;;;18.40;;
26530;SDS011;14201;43.188;24.160;2022-12-07T03:10:03;36.70;;;18.63;;
26530;SDS011;14201;43.188;24.160;2022-12-07T03:12:54;39.10;;;18.88;;
26530;SDS011;14201;43.188;24.160;2022-12-07T03:15:26;39.17;;;19.80;;
26530;SDS011;14201;43.188;24.160;2022-12-07T03:17:56;39.17;;;18.58;;
26530;SDS011;14201;43.188;24.160;2022-12-07T03:20:25;33.92;;;17.27;;
26530;SDS011;14201;43.188;24.160;2022-12-07T03:22:53;34.70;;;18.45;;
26530;SDS011;14201;43.188;24.160;2022-12-07T03:25:19;36.38;;;17.98;;
26530;SDS011;14201;43.188;24.160;2022-12-07T03:27:48;34.92;;;17.90;;
26530;SDS011;14201;43.188;24.160;2022-12-07T03:30:43;33.55;;;17.30;;
26530;SDS011;14201;43.188;24.160;2022-12-07T03:36:33;33.28;;;18.25;;
26530;SDS011;14201;43.188;24.160;2022-12-07T03:41:58;43.10;;;19.75;;
26530;SDS011;14201;43.188;24.160;2022-12-07T03:44:26;35.38;;;19.33;;
26530;SDS011;14201;43.188;24.160;2022-12-07T03:52:27;41.65;;;21.08;;
26530;SDS011;14201;43.188;24.160;2022-12-07T03:57:26;38.70;;;20.33;;
26530;SDS011;14201;43.188;24.160;2022-12-07T03:59:54;41.00;;;20.80;;
26530;SDS011;14201;43.188;24.160;2022-12-07T04:02:21;44.75;;;22.67;;
26530;SDS011;14201;43.188;24.160;2022-12-07T04:04:48;47.72;;;23.10;;
26530;SDS011;14201;43.188;24.160;2022-12-07T04:07:14;44.80;;;22.38;;
26530;SDS011;14201;43.188;24.160;2022-12-07T04:09:40;47.28;;;22.05;;
26530;SDS011;14201;43.188;24.160;2022-12-07T04:12:06;45.13;;;22.45;;
26530;SDS011;14201;43.188;24.160;2022-12-07T04:14:31;43.10;;;21.70;;
26530;SDS011;14201;43.188;24.160;2022-12-07T04:16:58;49.92;;;23.83;;
26530;SDS011;14201;43.188;24.160;2022-12-07T04:19:25;44.03;;;21.85;;
26530;SDS011;14201;43.188;24.160;2022-12-07T04:21:52;41.58;;;20.73;;
26530;SDS011;14201;43.188;24.160;2022-12-07T04:24:18;37.35;;;19.65;;
26530;SDS011;14201;43.188;24.160;2022-12-07T04:26:44;38.55;;;20.60;;
26530;SDS011;14201;43.188;24.160;2022-12-07T04:29:10;37.17;;;20.40;;
26530;SDS011;14201;43.188;24.160;2022-12-07T04:31:36;36.10;;;17.23;;
26530;SDS011;14201;43.188;24.160;2022-12-07T04:34:03;37.15;;;18.13;;
26530;SDS011;14201;43.188;24.160;2022-12-07T04:36:29;40.17;;;20.17;;
26530;SDS011;14201;43.188;24.160;2022-12-07T04:38:55;38.55;;;19.50;;
26530;SDS011;14201;43.188;24.160;2022-12-07T04:41:22;41.28;;;19.58;;
26530;SDS011;14201;43.188;24.160;2022-12-07T04:43:58;39.90;;;19.65;;
26530;SDS011;14201;43.188;24.160;2022-12-07T04:46:32;38.08;;;19.70;;
26530;SDS011;14201;43.188;24.160;2022-12-07T04:48:58;39.95;;;20.15;;
26530;SDS011;14201;43.188;24.160;2022-12-07T04:51:26;41.22;;;21.52;;
26530;SDS011;14201;43.188;24.160;2022-12-07T04:53:53;42.72;;;20.95;;
26530;SDS011;14201;43.188;24.160;2022-12-07T04:56:20;40.13;;;20.85;;
26530;SDS011;14201;43.188;24.160;2022-12-07T04:58:46;46.25;;;22.20;;
26530;SDS011;14201;43.188;24.160;2022-12-07T05:01:13;38.92;;;20.33;;
26530;SDS011;14201;43.188;24.160;2022-12-07T05:03:41;40.10;;;20.33;;
26530;SDS011;14201;43.188;24.160;2022-12-07T05:06:07;41.65;;;21.42;;
26530;SDS011;14201;43.188;24.160;2022-12-07T05:08:33;41.67;;;20.83;;
26530;SDS011;14201;43.188;24.160;2022-12-07T05:10:59;30.80;;;17.17;;
26530;SDS011;14201;43.188;24.160;2022-12-07T05:13:25;28.25;;;16.33;;
26530;SDS011;14201;43.188;24.160;2022-12-07T05:15:51;28.15;;;15.38;;
26530;SDS011;14201;43.188;24.160;2022-12-07T05:18:16;28.90;;;15.40;;
26530;SDS011;14201;43.188;24.160;2022-12-07T05:20:43;31.38;;;15.93;;
26530;SDS011;14201;43.188;24.160;2022-12-07T05:23:09;30.33;;;16.70;;
26530;SDS011;14201;43.188;24.160;2022-12-07T05:25:35;29.02;;;16.70;;
26530;SDS011;14201;43.188;24.160;2022-12-07T05:28:01;33.30;;;18.08;;
26530;SDS011;14201;43.188;24.160;2022-12-07T05:30:28;28.13;;;15.48;;
26530;SDS011;14201;43.188;24.160;2022-12-07T05:32:54;30.45;;;17.10;;
26530;SDS011;14201;43.188;24.160;2022-12-07T05:35:20;35.85;;;18.88;;
26530;SDS011;14201;43.188;24.160;2022-12-07T05:37:45;26.52;;;15.52;;
26530;SDS011;14201;43.188;24.160;2022-12-07T05:40:11;25.42;;;14.50;;
26530;SDS011;14201;43.188;24.160;2022-12-07T05:42:38;31.50;;;19.23;;
26530;SDS011;14201;43.188;24.160;2022-12-07T05:45:05;69.70;;;49.55;;
26530;SDS011;14201;43.188;24.160;2022-12-07T05:47:31;40.10;;;23.05;;
26530;SDS011;14201;43.188;24.160;2022-12-07T05:49:57;39.50;;;23.40;;
26530;SDS011;14201;43.188;24.160;2022-12-07T05:52:22;36.80;;;18.05;;
26530;SDS011;14201;43.188;24.160;2022-12-07T05:54:48;33.75;;;18.55;;
26530;SDS011;14201;43.188;24.160;2022-12-07T05:57:14;35.22;;;18.05;;
26530;SDS011;14201;43.188;24.160;2022-12-07T05:59:40;30.63;;;16.88;;
26530;SDS011;14201;43.188;24.160;2022-12-07T06:02:07;29.75;;;15.80;;
26530;SDS011;14201;43.188;24.160;2022-12-07T06:04:36;28.98;;;16.33;;
26530;SDS011;14201;43.188;24.160;2022-12-07T06:07:03;53.33;;;28.30;;
26530;SDS011;14201;43.188;24.160;2022-12-07T06:09:30;39.92;;;20.55;;
26530;SDS011;14201;43.188;24.160;2022-12-07T06:11:57;53.45;;;29.90;;
26530;SDS011;14201;43.188;24.160;2022-12-07T06:14:41;39.10;;;20.42;;
26530;SDS011;14201;43.188;24.160;2022-12-07T06:17:08;34.17;;;17.65;;
26530;SDS011;14201;43.188;24.160;2022-12-07T06:19:33;31.40;;;15.02;;
26530;SDS011;14201;43.188;24.160;2022-12-07T06:22:00;29.17;;;15.35;;
26530;SDS011;14201;43.188;24.160;2022-12-07T06:24:26;27.25;;;15.68;;
26530;SDS011;14201;43.188;24.160;2022-12-07T06:26:51;30.13;;;16.08;;
26530;SDS011;14201;43.188;24.160;2022-12-07T06:29:17;30.75;;;16.20;;
26530;SDS011;14201;43.188;24.160;2022-12-07T06:31:43;31.98;;;15.50;;
26530;SDS011;14201;43.188;24.160;2022-12-07T06:34:10;30.75;;;16.05;;
26530;SDS011;14201;43.188;24.160;2022-12-07T06:36:38;32.58;;;17.38;;
26530;SDS011;14201;43.188;24.160;2022-12-07T06:39:03;36.45;;;17.45;;
26530;SDS011;14201;43.188;24.160;2022-12-07T06:41:30;35.47;;;19.30;;
26530;SDS011;14201;43.188;24.160;2022-12-07T06:43:56;36.63;;;19.50;;
26530;SDS011;14201;43.188;24.160;2022-12-07T06:46:22;36.83;;;21.08;;
26530;SDS011;14201;43.188;24.160;2022-12-07T06:48:50;39.67;;;20.98;;
26530;SDS011;14201;43.188;24.160;2022-12-07T06:51:15;39.30;;;21.42;;
26530;SDS011;14201;43.188;24.160;2022-12-07T06:53:41;36.13;;;21.98;;
26530;SDS011;14201;43.188;24.160;2022-12-07T06:56:07;39.60;;;21.25;;
26530;SDS011;14201;43.188;24.160;2022-12-07T06:58:32;39.63;;;21.08;;
26530;SDS011;14201;43.188;24.160;2022-12-07T07:00:58;43.42;;;21.67;;
26530;SDS011;14201;43.188;24.160;2022-12-07T07:03:24;37.95;;;21.73;;
26530;SDS011;14201;43.188;24.160;2022-12-07T07:05:49;40.17;;;21.70;;
26530;SDS011;14201;43.188;24.160;2022-12-07T07:08:15;36.92;;;21.02;;
26530;SDS011;14201;43.188;24.160;2022-12-07T07:10:41;35.17;;;19.77;;
26530;SDS011;14201;43.188;24.160;2022-12-07T07:13:07;35.58;;;20.45;;
26530;SDS011;14201;43.188;24.160;2022-12-07T07:15:34;32.55;;;19.58;;
26530;SDS011;14201;43.188;24.160;2022-12-07T07:18:00;43.42;;;24.48;;
26530;SDS011;14201;43.188;24.160;2022-12-07T07:20:26;60.47;;;32.83;;
26530;SDS011;14201;43.188;24.160;2022-12-07T07:22:55;74.15;;;39.20;;
26530;SDS011;14201;43.188;24.160;2022-12-07T07:25:21;75.00;;;42.55;;
26530;SDS011;14201;43.188;24.160;2022-12-07T07:27:46;61.05;;;35.25;;
26530;SDS011;14201;43.188;24.160;2022-12-07T07:30:12;48.80;;;29.58;;
26530;SDS011;14201;43.188;24.160;2022-12-07T07:32:38;39.85;;;23.85;;
26530;SDS011;14201;43.188;24.160;2022-12-07T07:35:04;38.55;;;21.65;;
26530;SDS011;14201;43.188;24.160;2022-12-07T07:37:30;46.17;;;26.23;;
26530;SDS011;14201;43.188;24.160;2022-12-07T07:39:55;38.67;;;22.27;;
26530;SDS011;14201;43.188;24.160;2022-12-07T07:42:21;35.22;;;21.48;;
26530;SDS011;14201;43.188;24.160;2022-12-07T07:44:47;35.97;;;19.70;;
26530;SDS011;14201;43.188;24.160;2022-12-07T07:47:13;31.05;;;17.98;;
26530;SDS011;14201;43.188;24.160;2022-12-07T07:49:38;30.15;;;17.40;;
26530;SDS011;14201;43.188;24.160;2022-12-07T07:52:05;31.30;;;18.75;;
26530;SDS011;14201;43.188;24.160;2022-12-07T07:54:31;27.85;;;17.80;;
26530;SDS011;14201;43.188;24.160;2022-12-07T07:56:57;24.80;;;16.65;;
26530;SDS011;14201;43.188;24.160;2022-12-07T07:59:22;30.13;;;17.50;;
26530;SDS011;14201;43.188;24.160;2022-12-07T08:01:48;26.95;;;16.13;;
26530;SDS011;14201;43.188;24.160;2022-12-07T08:04:14;28.38;;;15.77;;
26530;SDS011;14201;43.188;24.160;2022-12-07T08:06:39;27.75;;;16.30;;
26530;SDS011;14201;43.188;24.160;2022-12-07T08:09:07;21.17;;;14.00;;
26530;SDS011;14201;43.188;24.160;2022-12-07T08:11:33;18.25;;;11.80;;
26530;SDS011;14201;43.188;24.160;2022-12-07T08:13:59;20.08;;;11.68;;
26530;SDS011;14201;43.188;24.160;2022-12-07T08:16:24;15.05;;;10.98;;
26530;SDS011;14201;43.188;24.160;2022-12-07T08:18:50;17.83;;;10.48;;
26530;SDS011;14201;43.188;24.160;2022-12-07T08:21:16;17.08;;;10.60;;
26530;SDS011;14201;43.188;24.160;2022-12-07T08:23:42;16.38;;;10.35;;
26530;SDS011;14201;43.188;24.160;2022-12-07T08:26:08;15.82;;;10.30;;
26530;SDS011;14201;43.188;24.160;2022-12-07T08:28:36;18.27;;;11.10;;
26530;SDS011;14201;43.188;24.160;2022-12-07T08:31:04;15.52;;;11.02;;
26530;SDS011;14201;43.188;24.160;2022-12-07T08:33:31;19.30;;;10.52;;
26530;SDS011;14201;43.188;24.160;2022-12-07T08:36:04;19.25;;;11.57;;
26530;SDS011;14201;43.188;24.160;2022-12-07T08:38:35;20.27;;;11.82;;
26530;SDS011;14201;43.188;24.160;2022-12-07T08:41:01;14.77;;;10.75;;
26530;SDS011;14201;43.188;24.160;2022-12-07T08:43:27;18.85;;;11.02;;
26530;SDS011;14201;43.188;24.160;2022-12-07T08:49:02;16.58;;;10.27;;
26530;SDS011;14201;43.188;24.160;2022-12-07T08:51:28;13.48;;;10.77;;
26530;SDS011;14201;43.188;24.160;2022-12-07T08:53:54;14.35;;;10.27;;
26530;SDS011;14201;43.188;24.160;2022-12-07T08:56:22;16.35;;;10.07;;
26530;SDS011;14201;43.188;24.160;2022-12-07T08:58:49;13.30;;;8.95;;
26530;SDS011;14201;43.188;24.160;2022-12-07T09:01:15;12.30;;;8.77;;
26530;SDS011;14201;43.188;24.160;2022-12-07T09:03:40;13.70;;;8.93;;
26530;SDS011;14201;43.188;24.160;2022-12-07T09:06:06;13.07;;;8.35;;
26530;SDS011;14201;43.188;24.160;2022-12-07T09:08:33;12.10;;;7.55;;
26530;SDS011;14201;43.188;24.160;2022-12-07T09:11:02;9.13;;;7.20;;
26530;SDS011;14201;43.188;24.160;2022-12-07T09:13:28;11.32;;;7.45;;
26530;SDS011;14201;43.188;24.160;2022-12-07T09:15:54;12.52;;;7.63;;
26530;SDS011;14201;43.188;24.160;2022-12-07T09:18:19;11.27;;;7.95;;
26530;SDS011;14201;43.188;24.160;2022-12-07T09:20:45;11.93;;;8.85;;
26530;SDS011;14201;43.188;24.160;2022-12-07T09:23:10;14.38;;;8.93;;
26530;SDS011;14201;43.188;24.160;2022-12-07T09:25:36;15.20;;;9.48;;
26530;SDS011;14201;43.188;24.160;2022-12-07T09:28:02;14.63;;;8.52;;
26530;SDS011;14201;43.188;24.160;2022-12-07T09:30:27;12.77;;;9.63;;
26530;SDS011;14201;43.188;24.160;2022-12-07T09:32:53;13.50;;;8.95;;
26530;SDS011;14201;43.188;24.160;2022-12-07T09:35:20;15.05;;;9.93;;
26530;SDS011;14201;43.188;24.160;2022-12-07T09:37:46;18.17;;;12.95;;
26530;SDS011;14201;43.188;24.160;2022-12-07T09:40:12;13.35;;;10.05;;
26530;SDS011;14201;43.188;24.160;2022-12-07T09:42:39;12.60;;;8.65;;
26530;SDS011;14201;43.188;24.160;2022-12-07T09:50:10;16.45;;;11.55;;
26530;SDS011;14201;43.188;24.160;2022-12-07T09:52:40;14.90;;;9.73;;
26530;SDS011;14201;43.188;24.160;2022-12-07T09:55:09;17.65;;;10.00;;
26530;SDS011;14201;43.188;24.160;2022-12-07T09:57:40;17.17;;;10.75;;
26530;SDS011;14201;43.188;24.160;2022-12-07T10:00:11;14.45;;;10.10;;
26530;SDS011;14201;43.188;24.160;2022-12-07T10:02:42;13.93;;;9.52;;
26530;SDS011;14201;43.188;24.160;2022-12-07T10:05:19;17.77;;;10.43;;
26530;SDS011;14201;43.188;24.160;2022-12-07T10:07:49;14.25;;;9.05;;
26530;SDS011;14201;43.188;24.160;2022-12-07T10:10:17;13.45;;;8.88;;
26530;SDS011;14201;43.188;24.160;2022-12-07T10:12:57;11.02;;;8.48;;
26530;SDS011;14201;43.188;24.160;2022-12-07T10:15:23;12.30;;;8.77;;
26530;SDS011;14201;43.188;24.160;2022-12-07T10:18:13;12.55;;;8.30;;
26530;SDS011;14201;43.188;24.160;2022-12-07T10:20:46;17.00;;;8.82;;
26530;SDS011;14201;43.188;24.160;2022-12-07T10:23:14;13.60;;;10.30;;
26530;SDS011;14201;43.188;24.160;2022-12-07T10:25:42;16.80;;;13.38;;
26530;SDS011;14201;43.188;24.160;2022-12-07T10:30:33;19.77;;;14.18;;
26530;SDS011;14201;43.188;24.160;2022-12-07T10:35:58;23.63;;;16.23;;
26530;SDS011;14201;43.188;24.160;2022-12-07T10:38:26;18.90;;;14.80;;
26530;SDS011;14201;43.188;24.160;2022-12-07T10:41:05;23.25;;;14.77;;
26530;SDS011;14201;43.188;24.160;2022-12-07T10:43:32;24.92;;;14.25;;
26530;SDS011;14201;43.188;24.160;2022-12-07T10:49:12;22.13;;;14.07;;
26530;SDS011;14201;43.188;24.160;2022-12-07T10:52:16;21.85;;;14.02;;
26530;SDS011;14201;43.188;24.160;2022-12-07T10:55:01;16.95;;;11.98;;
26530;SDS011;14201;43.188;24.160;2022-12-07T11:00:17;16.30;;;11.27;;
26530;SDS011;14201;43.188;24.160;2022-12-07T11:02:54;15.27;;;10.93;;
26530;SDS011;14201;43.188;24.160;2022-12-07T11:11:19;15.82;;;9.90;;
26530;SDS011;14201;43.188;24.160;2022-12-07T11:14:58;16.85;;;10.80;;
26530;SDS011;14201;43.188;24.160;2022-12-07T11:28:01;17.77;;;9.70;;
26530;SDS011;14201;43.188;24.160;2022-12-07T11:30:38;16.92;;;10.93;;
26530;SDS011;14201;43.188;24.160;2022-12-07T11:38:33;13.95;;;10.13;;
26530;SDS011;14201;43.188;24.160;2022-12-07T11:41:08;16.02;;;10.20;;
26530;SDS011;14201;43.188;24.160;2022-12-07T11:46:27;13.75;;;9.00;;
26530;SDS011;14201;43.188;24.160;2022-12-07T11:49:15;12.35;;;9.40;;
26530;SDS011;14201;43.188;24.160;2022-12-07T11:51:44;14.18;;;9.52;;
26530;SDS011;14201;43.188;24.160;2022-12-07T11:54:33;15.15;;;10.80;;
26530;SDS011;14201;43.188;24.160;2022-12-07T11:57:09;16.92;;;10.90;;
26530;SDS011;14201;43.188;24.160;2022-12-07T11:59:45;16.48;;;10.27;;
26530;SDS011;14201;43.188;24.160;2022-12-07T12:02:22;19.48;;;9.75;;
26530;SDS011;14201;43.188;24.160;2022-12-07T12:04:58;12.50;;;9.18;;
26530;SDS011;14201;43.188;24.160;2022-12-07T12:07:48;14.80;;;9.80;;
26530;SDS011;14201;43.188;24.160;2022-12-07T12:21:27;17.30;;;11.20;;
26530;SDS011;14201;43.188;24.160;2022-12-07T12:24:01;19.42;;;11.98;;
26530;SDS011;14201;43.188;24.160;2022-12-07T12:26:35;20.40;;;13.13;;
26530;SDS011;14201;43.188;24.160;2022-12-07T12:29:22;18.65;;;12.50;;
26530;SDS011;14201;43.188;24.160;2022-12-07T12:32:06;14.90;;;11.18;;
26530;SDS011;14201;43.188;24.160;2022-12-07T12:34:38;16.60;;;11.55;;
26530;SDS011;14201;43.188;24.160;2022-12-07T12:37:39;15.43;;;11.60;;
26530;SDS011;14201;43.188;24.160;2022-12-07T12:42:44;14.70;;;11.68;;
26530;SDS011;14201;43.188;24.160;2022-12-07T12:45:22;17.13;;;11.35;;
26530;SDS011;14201;43.188;24.160;2022-12-07T12:47:52;19.15;;;11.88;;
26530;SDS011;14201;43.188;24.160;2022-12-07T12:50:33;15.40;;;11.65;;
26530;SDS011;14201;43.188;24.160;2022-12-07T12:56:06;19.48;;;12.85;;
26530;SDS011;14201;43.188;24.160;2022-12-07T12:58:46;16.83;;;12.68;;
26530;SDS011;14201;43.188;24.160;2022-12-07T13:04:12;18.23;;;12.43;;
26530;SDS011;14201;43.188;24.160;2022-12-07T13:06:43;15.05;;;12.05;;
26530;SDS011;14201;43.188;24.160;2022-12-07T13:09:17;15.80;;;12.50;;
26530;SDS011;14201;43.188;24.160;2022-12-07T13:11:55;19.75;;;12.65;;
26530;SDS011;14201;43.188;24.160;2022-12-07T13:17:04;22.80;;;14.85;;
26530;SDS011;14201;43.188;24.160;2022-12-07T13:27:46;19.65;;;14.30;;
26530;SDS011;14201;43.188;24.160;2022-12-07T13:30:20;17.13;;;13.40;;
26530;SDS011;14201;43.188;24.160;2022-12-07T13:32:54;17.05;;;13.63;;
26530;SDS011;14201;43.188;24.160;2022-12-07T13:38:25;20.45;;;15.15;;
26530;SDS011;14201;43.188;24.160;2022-12-07T13:41:27;22.55;;;15.30;;
26530;SDS011;14201;43.188;24.160;2022-12-07T13:43:58;24.10;;;15.63;;
26530;SDS011;14201;43.188;24.160;2022-12-07T13:46:44;21.35;;;15.20;;
26530;SDS011;14201;43.188;24.160;2022-12-07T13:49:25;26.65;;;16.13;;
26530;SDS011;14201;43.188;24.160;2022-12-07T13:51:53;27.88;;;16.70;;
26530;SDS011;14201;43.188;24.160;2022-12-07T13:54:20;20.85;;;16.02;;
26530;SDS011;14201;43.188;24.160;2022-12-07T13:56:50;23.67;;;15.60;;
26530;SDS011;14201;43.188;24.160;2022-12-07T13:59:23;26.95;;;18.13;;
26530;SDS011;14201;43.188;24.160;2022-12-07T14:01:52;26.48;;;17.85;;
26530;SDS011;14201;43.188;24.160;2022-12-07T14:04:19;25.00;;;17.58;;
26530;SDS011;14201;43.188;24.160;2022-12-07T14:06:51;26.35;;;16.70;;
26530;SDS011;14201;43.188;24.160;2022-12-07T14:09:21;24.35;;;16.88;;
26530;SDS011;14201;43.188;24.160;2022-12-07T14:11:49;31.55;;;18.17;;
26530;SDS011;14201;43.188;24.160;2022-12-07T14:14:18;23.92;;;17.85;;
26530;SDS011;14201;43.188;24.160;2022-12-07T14:16:56;26.25;;;16.30;;
26530;SDS011;14201;43.188;24.160;2022-12-07T14:22:21;27.13;;;16.33;;
26530;SDS011;14201;43.188;24.160;2022-12-07T14:24:48;21.45;;;15.60;;
26530;SDS011;14201;43.188;24.160;2022-12-07T14:27:21;19.90;;;14.75;;
26530;SDS011;14201;43.188;24.160;2022-12-07T14:29:50;20.85;;;15.32;;
26530;SDS011;14201;43.188;24.160;2022-12-07T14:32:21;23.70;;;14.95;;
26530;SDS011;14201;43.188;24.160;2022-12-07T14:37:29;25.58;;;14.80;;
26530;SDS011;14201;43.188;24.160;2022-12-07T14:39:56;18.73;;;14.38;;
26530;SDS011;14201;43.188;24.160;2022-12-07T14:42:22;21.63;;;15.52;;
26530;SDS011;14201;43.188;24.160;2022-12-07T14:44:51;24.00;;;17.63;;
26530;SDS011;14201;43.188;24.160;2022-12-07T14:47:16;24.42;;;17.90;;
26530;SDS011;14201;43.188;24.160;2022-12-07T14:49:42;26.17;;;17.52;;
26530;SDS011;14201;43.188;24.160;2022-12-07T14:52:11;25.10;;;18.13;;
26530;SDS011;14201;43.188;24.160;2022-12-07T14:54:49;26.73;;;18.40;;
26530;SDS011;14201;43.188;24.160;2022-12-07T14:57:16;25.95;;;18.05;;
26530;SDS011;14201;43.188;24.160;2022-12-07T14:59:41;28.52;;;17.60;;
26530;SDS011;14201;43.188;24.160;2022-12-07T15:02:08;26.48;;;17.75;;
26530;SDS011;14201;43.188;24.160;2022-12-07T15:04:36;26.77;;;18.15;;
26530;SDS011;14201;43.188;24.160;2022-12-07T15:07:03;27.08;;;18.98;;
26530;SDS011;14201;43.188;24.160;2022-12-07T15:09:30;28.77;;;18.52;;
26530;SDS011;14201;43.188;24.160;2022-12-07T15:11:56;33.58;;;18.95;;
26530;SDS011;14201;43.188;24.160;2022-12-07T15:14:22;28.40;;;18.05;;
26530;SDS011;14201;43.188;24.160;2022-12-07T15:16:47;24.00;;;17.45;;
26530;SDS011;14201;43.188;24.160;2022-12-07T15:19:14;27.45;;;18.88;;
26530;SDS011;14201;43.188;24.160;2022-12-07T15:21:42;26.10;;;17.77;;
26530;SDS011;14201;43.188;24.160;2022-12-07T15:24:09;26.63;;;18.80;;
26530;SDS011;14201;43.188;24.160;2022-12-07T15:26:36;28.60;;;19.55;;
26530;SDS011;14201;43.188;24.160;2022-12-07T15:29:02;30.63;;;19.92;;
26530;SDS011;14201;43.188;24.160;2022-12-07T15:31:28;29.83;;;20.88;;
26530;SDS011;14201;43.188;24.160;2022-12-07T15:33:54;32.72;;;20.80;;
26530;SDS011;14201;43.188;24.160;2022-12-07T15:36:21;35.95;;;21.95;;
26530;SDS011;14201;43.188;24.160;2022-12-07T15:38:48;32.40;;;22.08;;
26530;SDS011;14201;43.188;24.160;2022-12-07T15:41:14;33.75;;;21.70;;
26530;SDS011;14201;43.188;24.160;2022-12-07T15:43:40;34.03;;;22.38;;
26530;SDS011;14201;43.188;24.160;2022-12-07T15:46:28;31.35;;;21.17;;
26530;SDS011;14201;43.188;24.160;2022-12-07T15:49:07;34.45;;;22.42;;
26530;SDS011;14201;43.188;24.160;2022-12-07T15:51:35;34.45;;;22.58;;
26530;SDS011;14201;43.188;24.160;2022-12-07T15:54:01;35.17;;;22.40;;
26530;SDS011;14201;43.188;24.160;2022-12-07T15:56:27;36.97;;;22.77;;
26530;SDS011;14201;43.188;24.160;2022-12-07T15:58:52;34.25;;;22.38;;
26530;SDS011;14201;43.188;24.160;2022-12-07T16:01:18;32.55;;;21.75;;
26530;SDS011;14201;43.188;24.160;2022-12-07T16:03:45;35.35;;;23.30;;
26530;SDS011;14201;43.188;24.160;2022-12-07T16:06:15;37.08;;;22.85;;
26530;SDS011;14201;43.188;24.160;2022-12-07T16:08:43;39.33;;;23.88;;
26530;SDS011;14201;43.188;24.160;2022-12-07T16:11:09;34.70;;;22.42;;
26530;SDS011;14201;43.188;24.160;2022-12-07T16:13:35;38.38;;;23.27;;
26530;SDS011;14201;43.188;24.160;2022-12-07T16:16:05;39.72;;;23.75;;
26530;SDS011;14201;43.188;24.160;2022-12-07T16:18:32;35.22;;;23.08;;
26530;SDS011;14201;43.188;24.160;2022-12-07T16:20:58;39.63;;;22.73;;
26530;SDS011;14201;43.188;24.160;2022-12-07T16:23:24;32.45;;;21.50;;
26530;SDS011;14201;43.188;24.160;2022-12-07T16:25:49;34.88;;;22.83;;
26530;SDS011;14201;43.188;24.160;2022-12-07T16:28:15;36.17;;;23.30;;